Terminal Aerodrome Forecast
Issued by NWS

Home | Current Version | Previous Version | Text Only | Print | Product List | Glossary On
Versions: 1 2 3 4 5 6 7 8 9 10 11 12 13 14 15
000
FTUS46 KPQR 160529
TAFONP
TAF
KONP 160529Z 1606/1706 24003KT 4SM -RADZ BR BKN015 OVC025
     FM162000 23010KT P6SM -RADZ SCT015 OVC025
     FM170300 21004KT P6SM -RADZ SCT015 OVC025=

USA.gov is the U.S. government's official web portal to all federal, state and local government web resources and services.